createdAt,value
2023-02-19T00:01:48.904Z,44.22
2023-02-19T00:04:19.886Z,44.72
2023-02-19T00:06:48.627Z,42.58
2023-02-19T00:09:19.104Z,49.72
2023-02-19T00:11:47.860Z,43.97
2023-02-19T00:14:18.362Z,46.38
2023-02-19T00:16:46.447Z,42.38
2023-02-19T00:19:16.484Z,47.83
2023-02-19T00:21:45.891Z,40.35
2023-02-19T00:24:15.784Z,37.53
2023-02-19T00:26:45.513Z,39.67
2023-02-19T00:29:15.724Z,42.80
2023-02-19T00:31:44.771Z,32.75
2023-02-19T00:34:13.656Z,30.60
2023-02-19T00:36:42.812Z,32.13
2023-02-19T00:39:16.074Z,29.20
2023-02-19T00:41:44.428Z,32.53
2023-02-19T00:44:13.305Z,26.73
2023-02-19T00:46:43.602Z,25.42
2023-02-19T00:49:19.899Z,25.85
2023-02-19T00:51:48.654Z,25.95
2023-02-19T00:54:18.578Z,25.17
2023-02-19T00:56:46.726Z,24.77
2023-02-19T00:59:15.085Z,22.45
2023-02-19T01:01:44.432Z,20.60
2023-02-19T01:04:13.174Z,20.05
2023-02-19T01:06:41.317Z,19.13
2023-02-19T01:09:09.465Z,19.88
2023-02-19T01:11:38.885Z,20.27
2023-02-19T01:14:06.922Z,19.38
2023-02-19T01:16:34.937Z,19.92
2023-02-19T01:19:03.003Z,16.95
2023-02-19T01:21:31.530Z,16.92
2023-02-19T01:24:00.313Z,17.60
2023-02-19T01:26:34.502Z,15.98
2023-02-19T01:29:04.675Z,16.92
2023-02-19T01:31:33.281Z,18.85
2023-02-19T01:34:03.205Z,18.08
2023-02-19T01:36:33.644Z,15.48
2023-02-19T01:39:03.993Z,15.23
2023-02-19T01:41:33.326Z,16.58
2023-02-19T01:44:05.272Z,17.23
2023-02-19T01:46:34.324Z,15.20
2023-02-19T01:49:06.650Z,17.75
2023-02-19T01:51:37.599Z,17.95
2023-02-19T01:54:08.202Z,14.93
2023-02-19T01:56:39.442Z,14.20
2023-02-19T01:59:09.391Z,13.38
2023-02-19T02:01:39.583Z,14.38
2023-02-19T02:04:10.972Z,14.40
2023-02-19T02:06:45.325Z,13.57
2023-02-19T02:09:31.512Z,15.68
2023-02-19T02:11:59.620Z,14.55
2023-02-19T02:14:32.200Z,14.05
2023-02-19T02:17:10.328Z,12.70
2023-02-19T02:20:03.565Z,13.38
2023-02-19T02:22:37.137Z,12.02
2023-02-19T02:25:34.654Z,12.05
2023-02-19T02:28:18.209Z,11.10
2023-02-19T02:30:51.335Z,11.60
2023-02-19T02:33:28.460Z,11.90
2023-02-19T02:36:00.140Z,11.80
2023-02-19T02:38:31.930Z,14.23
2023-02-19T02:41:00.488Z,12.57
2023-02-19T02:43:28.570Z,13.55
2023-02-19T02:45:58.003Z,15.90
2023-02-19T02:48:34.327Z,12.85
2023-02-19T02:51:09.007Z,14.45
2023-02-19T02:53:59.928Z,13.07
2023-02-19T02:56:28.329Z,14.95
2023-02-19T02:58:57.810Z,13.68
2023-02-19T03:01:48.806Z,13.05
2023-02-19T03:04:24.782Z,13.00
2023-02-19T03:06:54.899Z,11.15
2023-02-19T03:09:30.225Z,13.07
2023-02-19T03:12:31.934Z,13.50
2023-02-19T03:15:23.357Z,14.07
2023-02-19T03:18:15.644Z,11.95
2023-02-19T03:20:47.559Z,12.57
2023-02-19T03:23:17.183Z,10.80
2023-02-19T03:25:59.660Z,11.98
2023-02-19T03:28:47.164Z,11.85
2023-02-19T03:31:19.512Z,12.98
2023-02-19T03:36:26.650Z,11.90
2023-02-19T03:39:00.986Z,15.25
2023-02-19T03:41:36.332Z,10.90
2023-02-19T03:44:10.777Z,10.65
2023-02-19T03:46:48.198Z,14.20
2023-02-19T03:49:23.904Z,14.18
2023-02-19T03:51:59.012Z,15.38
2023-02-19T03:54:35.942Z,19.17
2023-02-19T03:57:09.653Z,18.75
2023-02-19T03:59:44.766Z,20.52
2023-02-19T04:02:15.930Z,21.33
2023-02-19T04:04:50.942Z,22.90
2023-02-19T04:07:19.090Z,21.90
2023-02-19T04:09:50.602Z,20.45
2023-02-19T04:12:20.225Z,24.50
2023-02-19T04:14:53.371Z,22.17
2023-02-19T04:17:26.038Z,25.80
2023-02-19T04:19:57.479Z,26.13
2023-02-19T04:22:26.478Z,25.80
2023-02-19T04:24:56.430Z,25.55
2023-02-19T04:27:24.614Z,24.75
2023-02-19T04:29:52.596Z,27.88
2023-02-19T04:32:20.865Z,26.60
2023-02-19T04:34:48.883Z,26.80
2023-02-19T04:37:18.339Z,26.35
2023-02-19T04:39:46.512Z,27.83
2023-02-19T04:42:14.515Z,25.00
2023-02-19T04:44:42.529Z,19.20
2023-02-19T04:47:10.509Z,20.67
2023-02-19T04:49:38.571Z,18.67
2023-02-19T04:52:06.606Z,20.52
2023-02-19T04:54:35.972Z,17.20
2023-02-19T04:57:04.360Z,18.63
2023-02-19T04:59:32.550Z,17.45
2023-02-19T05:02:00.602Z,16.90
2023-02-19T05:04:28.604Z,18.25
2023-02-19T05:06:56.658Z,17.23
2023-02-19T05:09:24.798Z,16.33
2023-02-19T05:11:54.220Z,17.65
2023-02-19T05:14:22.275Z,20.15
2023-02-19T05:16:50.323Z,26.25
2023-02-19T05:19:18.358Z,24.67
2023-02-19T05:21:46.358Z,22.90
2023-02-19T05:24:14.378Z,22.17
2023-02-19T05:26:45.080Z,27.88
2023-02-19T05:29:14.780Z,27.77
2023-02-19T05:31:42.973Z,24.48
2023-02-19T05:34:11.071Z,27.95
2023-02-19T05:36:39.996Z,28.55
2023-02-19T05:39:09.499Z,35.70
2023-02-19T05:41:37.549Z,29.35
2023-02-19T05:44:05.525Z,33.17
2023-02-19T05:46:35.204Z,32.13
2023-02-19T05:49:04.493Z,29.42
2023-02-19T05:51:32.519Z,31.05
2023-02-19T05:54:00.533Z,35.55
2023-02-19T05:56:32.928Z,35.17
2023-02-19T05:59:03.894Z,35.85
2023-02-19T06:01:32.265Z,38.05
2023-02-19T06:04:01.834Z,36.58
2023-02-19T06:06:29.884Z,34.83
2023-02-19T06:08:57.954Z,39.80
2023-02-19T06:11:26.215Z,37.30
2023-02-19T06:13:54.263Z,34.45
2023-02-19T06:16:22.953Z,34.85
2023-02-19T06:18:51.125Z,36.85
2023-02-19T06:21:20.919Z,32.38
2023-02-19T06:23:49.073Z,34.92
2023-02-19T06:26:19.472Z,40.60
2023-02-19T06:28:49.059Z,38.33
2023-02-19T06:31:17.693Z,33.13
2023-02-19T06:33:45.984Z,32.78
2023-02-19T06:36:16.210Z,29.50
2023-02-19T06:38:46.210Z,28.35
2023-02-19T06:41:14.627Z,25.38
2023-02-19T06:43:43.212Z,34.22
2023-02-19T06:46:12.993Z,33.90
2023-02-19T06:48:42.468Z,38.85
2023-02-19T06:51:13.319Z,40.00
2023-02-19T06:53:41.357Z,34.92
2023-02-19T06:56:25.194Z,40.20
2023-02-19T06:58:54.007Z,39.30
2023-02-19T07:01:22.480Z,41.92
2023-02-19T07:03:52.610Z,39.95
2023-02-19T07:06:21.064Z,37.83
2023-02-19T07:08:49.357Z,38.25
2023-02-19T07:11:19.400Z,35.30
2023-02-19T07:13:47.659Z,37.63
2023-02-19T07:16:17.925Z,39.20
2023-02-19T07:18:46.042Z,32.05
2023-02-19T07:21:16.285Z,35.13
2023-02-19T07:23:45.406Z,34.05
2023-02-19T07:26:15.106Z,26.60
2023-02-19T07:28:45.403Z,31.95
2023-02-19T07:31:14.778Z,27.58
2023-02-19T07:33:44.391Z,29.23
2023-02-19T07:36:12.873Z,27.40
2023-02-19T07:38:40.971Z,34.08
2023-02-19T07:41:09.710Z,33.83
2023-02-19T07:43:39.414Z,33.97
2023-02-19T07:46:10.760Z,34.88
2023-02-19T07:48:39.806Z,31.77
2023-02-19T07:51:09.843Z,34.67
2023-02-19T07:53:38.114Z,30.08
2023-02-19T07:56:08.225Z,24.17
2023-02-19T07:58:36.664Z,23.27
2023-02-19T08:01:11.378Z,17.30
2023-02-19T08:03:39.264Z,18.98
2023-02-19T08:06:08.388Z,18.38
2023-02-19T08:08:36.394Z,22.65
2023-02-19T08:11:23.389Z,22.42
2023-02-19T08:13:52.598Z,21.13
2023-02-19T08:16:36.701Z,21.70
2023-02-19T08:19:09.070Z,18.40
2023-02-19T08:21:37.106Z,18.75
2023-02-19T08:24:05.758Z,17.02
2023-02-19T08:26:34.212Z,16.73
2023-02-19T08:29:02.312Z,17.05
2023-02-19T08:31:31.986Z,15.75
2023-02-19T08:34:00.131Z,18.58
2023-02-19T08:36:28.186Z,16.70
2023-02-19T08:38:56.214Z,13.55
2023-02-19T08:41:24.324Z,17.80
2023-02-19T08:43:52.449Z,13.70
2023-02-19T08:46:21.295Z,18.08
2023-02-19T08:48:51.096Z,12.85
2023-02-19T08:51:19.140Z,14.90
2023-02-19T08:53:47.844Z,13.35
2023-02-19T08:56:17.542Z,11.68
2023-02-19T08:58:46.400Z,13.25
2023-02-19T09:01:16.672Z,11.88
2023-02-19T09:03:45.046Z,13.50
2023-02-19T09:06:18.136Z,15.00
2023-02-19T09:08:46.551Z,14.10
2023-02-19T09:11:14.824Z,15.18
2023-02-19T09:13:43.221Z,12.82
2023-02-19T09:16:11.953Z,13.85
2023-02-19T09:18:40.384Z,12.30
2023-02-19T09:21:08.548Z,12.70
2023-02-19T09:23:38.413Z,12.27
2023-02-19T09:26:10.088Z,11.88
2023-02-19T09:28:41.649Z,11.93
2023-02-19T09:31:12.685Z,14.23
2023-02-19T09:33:44.384Z,14.25
2023-02-19T09:36:13.026Z,8.23
2023-02-19T09:38:42.767Z,8.40
2023-02-19T09:41:18.343Z,6.68
2023-02-19T09:43:47.180Z,7.93
2023-02-19T09:46:26.342Z,6.20
2023-02-19T09:48:56.889Z,6.47
2023-02-19T09:51:29.343Z,5.20
2023-02-19T09:56:28.060Z,3.58
2023-02-19T09:58:59.094Z,4.28
2023-02-19T10:01:32.251Z,3.67
2023-02-19T10:04:00.406Z,3.42
2023-02-19T10:06:30.341Z,3.90
2023-02-19T10:09:14.755Z,4.03
2023-02-19T10:11:43.418Z,4.63
2023-02-19T10:14:18.399Z,3.97
2023-02-19T10:16:49.294Z,4.22
2023-02-19T10:19:18.170Z,3.92
2023-02-19T10:21:46.740Z,4.43
2023-02-19T10:24:22.405Z,4.60
2023-02-19T10:26:51.885Z,6.25
2023-02-19T10:29:21.675Z,5.82
2023-02-19T10:31:49.886Z,5.70
2023-02-19T10:34:24.353Z,5.05
2023-02-19T10:36:53.551Z,5.55
2023-02-19T10:39:42.224Z,6.35
2023-02-19T10:42:17.213Z,5.45
2023-02-19T10:44:48.259Z,4.35
2023-02-19T10:47:22.455Z,4.55
2023-02-19T10:49:52.262Z,4.20
2023-02-19T10:52:24.304Z,3.85
2023-02-19T10:54:56.362Z,3.95
2023-02-19T10:57:35.164Z,3.40
2023-02-19T11:00:19.948Z,3.72
2023-02-19T11:02:47.942Z,4.80
2023-02-19T11:05:19.940Z,5.32
2023-02-19T11:07:50.929Z,5.72
2023-02-19T11:10:29.332Z,5.80
2023-02-19T11:13:00.189Z,5.10
2023-02-19T11:15:30.633Z,4.70
2023-02-19T11:18:01.161Z,4.50
2023-02-19T11:20:31.978Z,4.72
2023-02-19T11:23:02.770Z,4.65
2023-02-19T11:25:32.726Z,3.90
2023-02-19T11:28:07.370Z,4.78
2023-02-19T11:30:39.913Z,3.58
2023-02-19T11:33:31.054Z,3.63
2023-02-19T11:36:25.504Z,3.20
2023-02-19T11:38:53.687Z,3.42
2023-02-19T11:41:39.991Z,3.50
2023-02-19T11:44:19.263Z,3.55
2023-02-19T11:46:56.149Z,3.42
2023-02-19T11:49:40.384Z,4.25
2023-02-19T11:52:27.283Z,4.40
2023-02-19T11:54:59.212Z,5.45
2023-02-19T11:57:44.740Z,6.10
2023-02-19T12:00:38.243Z,9.13
2023-02-19T12:03:35.757Z,7.45
2023-02-19T12:06:26.754Z,6.90
2023-02-19T12:09:08.814Z,7.35
2023-02-19T12:11:59.608Z,7.00
2023-02-19T12:14:56.386Z,6.03
2023-02-19T12:17:49.291Z,4.63
2023-02-19T12:20:27.885Z,4.10
2023-02-19T12:23:13.119Z,3.72
2023-02-19T12:25:54.784Z,3.05
2023-02-19T12:28:34.841Z,3.80
2023-02-19T12:31:35.750Z,3.65
2023-02-19T12:34:36.833Z,4.35
2023-02-19T12:37:16.290Z,2.50
2023-02-19T12:39:53.261Z,2.63
2023-02-19T12:42:37.548Z,2.55
2023-02-19T12:45:12.502Z,3.70
2023-02-19T12:47:46.855Z,3.63
2023-02-19T12:50:21.137Z,4.68
2023-02-19T12:52:53.019Z,5.68
2023-02-19T12:55:25.890Z,4.28
2023-02-19T12:57:55.518Z,4.10
2023-02-19T13:00:36.670Z,4.75
2023-02-19T13:03:14.197Z,4.63
2023-02-19T13:05:49.182Z,4.28
2023-02-19T13:08:24.979Z,3.22
2023-02-19T13:10:57.615Z,3.00
2023-02-19T13:13:31.134Z,3.85
2023-02-19T13:16:04.190Z,4.95
2023-02-19T13:18:41.035Z,3.60
2023-02-19T13:21:10.416Z,3.60
2023-02-19T13:24:02.734Z,4.05
2023-02-19T13:26:46.684Z,4.25
2023-02-19T13:29:29.166Z,3.17
2023-02-19T13:32:19.233Z,4.18
2023-02-19T13:35:00.586Z,7.70
2023-02-19T13:37:32.777Z,4.18
2023-02-19T13:40:03.831Z,4.65
2023-02-19T13:42:35.004Z,4.22
2023-02-19T13:45:04.802Z,3.80
2023-02-19T13:48:01.093Z,4.40
2023-02-19T13:50:32.222Z,3.45
2023-02-19T13:53:01.267Z,4.35
2023-02-19T13:55:52.489Z,3.75
2023-02-19T13:58:52.919Z,4.05
2023-02-19T14:01:41.309Z,2.33
2023-02-19T14:04:17.347Z,2.35
2023-02-19T14:07:18.466Z,1.80
2023-02-19T14:09:48.264Z,2.42
2023-02-19T14:12:22.369Z,3.00
2023-02-19T14:14:51.526Z,2.67
2023-02-19T14:17:38.305Z,3.05
2023-02-19T14:20:41.854Z,3.35
2023-02-19T14:23:17.894Z,2.70
2023-02-19T14:26:00.211Z,2.53
2023-02-19T14:28:36.187Z,2.97
2023-02-19T14:31:22.103Z,3.72
2023-02-19T14:33:52.833Z,2.83
2023-02-19T14:36:29.686Z,3.03
2023-02-19T14:39:00.178Z,3.95
2023-02-19T14:41:33.736Z,3.30
2023-02-19T14:44:03.253Z,3.83
2023-02-19T14:46:34.138Z,2.35
2023-02-19T14:49:08.291Z,2.42
2023-02-19T14:51:40.179Z,1.98
2023-02-19T14:54:15.866Z,1.40
2023-02-19T14:56:47.831Z,1.50
2023-02-19T14:59:25.862Z,1.48
2023-02-19T15:01:59.540Z,1.58
2023-02-19T15:04:31.301Z,1.05
2023-02-19T15:07:03.409Z,0.80
2023-02-19T15:09:37.572Z,0.70
2023-02-19T15:12:07.807Z,0.68
2023-02-19T15:14:36.192Z,0.80
2023-02-19T15:17:06.544Z,0.70
2023-02-19T15:19:39.571Z,0.65
2023-02-19T15:22:08.472Z,0.68
2023-02-19T15:24:37.055Z,0.50
2023-02-19T15:27:06.856Z,0.73
2023-02-19T15:29:34.868Z,0.70
2023-02-19T15:32:03.364Z,0.70
2023-02-19T15:34:33.528Z,0.77
2023-02-19T15:37:04.952Z,0.80
2023-02-19T15:39:36.902Z,0.70
2023-02-19T15:42:08.876Z,0.63
2023-02-19T15:44:45.273Z,0.98
2023-02-19T15:47:23.824Z,0.60
2023-02-19T15:49:58.688Z,0.80
2023-02-19T15:52:34.226Z,1.00
2023-02-19T15:55:09.694Z,1.30
2023-02-19T15:57:45.154Z,1.40
2023-02-19T16:00:17.972Z,1.30
2023-02-19T16:02:47.256Z,1.55
2023-02-19T16:05:18.499Z,1.35
2023-02-19T16:07:46.518Z,1.98
2023-02-19T16:10:23.874Z,7.63
2023-02-19T16:13:01.129Z,1.80
2023-02-19T16:15:30.954Z,1.40
2023-02-19T16:18:00.567Z,2.25
2023-02-19T16:20:31.352Z,1.92
2023-02-19T16:23:02.772Z,5.05
2023-02-19T16:25:37.394Z,3.80
2023-02-19T16:28:13.927Z,3.40
2023-02-19T16:30:42.706Z,2.40
2023-02-19T16:33:34.831Z,3.95
2023-02-19T16:36:26.283Z,3.63
2023-02-19T16:39:24.956Z,2.90
2023-02-19T16:42:17.253Z,2.53
2023-02-19T16:44:48.348Z,2.58
2023-02-19T16:47:28.381Z,2.38
2023-02-19T16:49:58.213Z,3.47
2023-02-19T16:52:26.333Z,2.75
2023-02-19T16:54:54.591Z,2.63
2023-02-19T16:57:22.726Z,2.53
2023-02-19T16:59:52.182Z,2.67
2023-02-19T17:02:23.430Z,3.15
2023-02-19T17:04:55.069Z,2.70
2023-02-19T17:07:27.503Z,2.88
2023-02-19T17:12:23.922Z,2.72
2023-02-19T17:14:55.808Z,3.00
2023-02-19T17:17:24.895Z,3.00
2023-02-19T17:19:52.900Z,3.50
2023-02-19T17:22:21.034Z,3.70
2023-02-19T17:24:49.294Z,10.40
2023-02-19T17:27:17.410Z,6.05
2023-02-19T17:29:45.445Z,5.35
2023-02-19T17:32:15.630Z,5.22
2023-02-19T17:34:43.857Z,4.95
2023-02-19T17:37:12.142Z,5.00
2023-02-19T17:39:40.229Z,6.07
2023-02-19T17:42:08.761Z,6.00
2023-02-19T17:44:37.008Z,5.80
2023-02-19T17:47:05.367Z,6.00
2023-02-19T17:49:35.212Z,5.85
2023-02-19T17:52:03.186Z,7.10
2023-02-19T17:54:31.236Z,7.60
2023-02-19T17:56:59.253Z,7.63
2023-02-19T17:59:27.280Z,7.35
2023-02-19T18:01:55.749Z,8.55
2023-02-19T18:04:23.814Z,7.60
2023-02-19T18:06:54.071Z,7.47
2023-02-19T18:09:22.966Z,20.83
2023-02-19T18:11:51.073Z,11.70
2023-02-19T18:14:19.167Z,9.02
2023-02-19T18:16:50.006Z,8.90
2023-02-19T18:19:18.574Z,9.25
2023-02-19T18:21:46.672Z,10.02
2023-02-19T18:24:16.353Z,10.45
2023-02-19T18:26:44.735Z,10.98
2023-02-19T18:29:12.834Z,10.07
2023-02-19T18:31:40.963Z,10.60
2023-02-19T18:34:18.402Z,9.75
2023-02-19T18:36:46.941Z,10.27
2023-02-19T18:39:17.242Z,10.02
2023-02-19T18:41:48.969Z,12.48
2023-02-19T18:44:20.192Z,13.98
2023-02-19T18:46:48.528Z,13.75
2023-02-19T18:49:17.431Z,13.73
2023-02-19T18:51:45.529Z,11.80
2023-02-19T18:54:13.637Z,19.40
2023-02-19T18:56:44.220Z,14.85
2023-02-19T18:59:12.914Z,10.85
2023-02-19T19:01:41.503Z,13.55
2023-02-19T19:04:09.679Z,14.85
2023-02-19T19:06:37.730Z,16.50
2023-02-19T19:09:06.901Z,16.27
2023-02-19T19:11:35.185Z,17.80
2023-02-19T19:14:04.620Z,16.65
2023-02-19T19:16:32.614Z,17.20
2023-02-19T19:19:00.729Z,18.95
2023-02-19T19:21:28.717Z,19.88
2023-02-19T19:23:57.234Z,19.70
2023-02-19T19:26:25.316Z,17.73
2023-02-19T19:28:54.474Z,19.02
2023-02-19T19:31:24.810Z,19.45
2023-02-19T19:33:52.994Z,21.20
2023-02-19T19:36:23.476Z,21.83
2023-02-19T19:38:51.547Z,21.52
2023-02-19T19:41:20.797Z,20.17
2023-02-19T19:43:49.005Z,26.42
2023-02-19T19:46:19.925Z,28.05
2023-02-19T19:48:50.753Z,28.08
2023-02-19T19:51:18.815Z,29.02
2023-02-19T19:53:48.672Z,29.17
2023-02-19T19:56:17.098Z,29.90
2023-02-19T19:58:45.471Z,34.33
2023-02-19T20:01:14.996Z,34.75
2023-02-19T20:03:43.061Z,36.15
2023-02-19T20:06:12.442Z,32.83
2023-02-19T20:08:40.412Z,35.30
2023-02-19T20:11:08.541Z,33.55
2023-02-19T20:13:36.625Z,32.55
2023-02-19T20:16:06.095Z,35.88
2023-02-19T20:18:36.017Z,32.22
2023-02-19T20:21:04.488Z,33.67
2023-02-19T20:23:33.863Z,35.20
2023-02-19T20:26:01.938Z,40.20
2023-02-19T20:28:29.964Z,37.85
2023-02-19T20:30:58.002Z,38.75
2023-02-19T20:33:26.148Z,41.92
2023-02-19T20:35:54.347Z,43.03
2023-02-19T20:38:22.433Z,38.00
2023-02-19T20:40:51.850Z,39.53
2023-02-19T20:43:19.900Z,38.75
2023-02-19T20:45:48.404Z,38.95
2023-02-19T20:48:17.422Z,36.72
2023-02-19T20:50:45.768Z,38.65
2023-02-19T20:53:13.845Z,39.50
2023-02-19T20:55:41.930Z,39.30
2023-02-19T20:58:11.347Z,36.33
2023-02-19T21:00:39.350Z,35.50
2023-02-19T21:03:09.020Z,37.35
2023-02-19T21:05:38.579Z,37.30
2023-02-19T21:08:06.979Z,36.30
2023-02-19T21:10:35.057Z,35.08
2023-02-19T21:13:03.388Z,34.10
2023-02-19T21:15:32.829Z,33.90
2023-02-19T21:18:00.931Z,34.33
2023-02-19T21:20:28.958Z,33.50
2023-02-19T21:22:56.992Z,32.72
2023-02-19T21:25:24.981Z,34.70
2023-02-19T21:27:53.043Z,33.38
2023-02-19T21:30:21.207Z,35.97
2023-02-19T21:32:50.648Z,36.30
2023-02-19T21:35:18.660Z,34.72
2023-02-19T21:37:46.705Z,40.28
2023-02-19T21:40:15.079Z,39.90
2023-02-19T21:42:43.088Z,35.10
2023-02-19T21:45:11.321Z,32.65
2023-02-19T21:47:39.342Z,37.65
2023-02-19T21:50:09.922Z,41.25
2023-02-19T21:52:38.045Z,37.97
2023-02-19T21:55:06.729Z,44.15
2023-02-19T21:57:34.795Z,42.33
2023-02-19T22:00:03.272Z,37.00
2023-02-19T22:02:31.308Z,50.85
2023-02-19T22:04:59.614Z,41.97
2023-02-19T22:07:30.488Z,45.03
2023-02-19T22:09:58.739Z,40.95
2023-02-19T22:12:26.964Z,36.00
2023-02-19T22:14:54.989Z,51.53
2023-02-19T22:17:23.036Z,59.45
2023-02-19T22:19:51.178Z,46.80
2023-02-19T22:22:19.406Z,46.15
2023-02-19T22:24:48.784Z,45.03
2023-02-19T22:27:16.766Z,46.20
2023-02-19T22:29:44.751Z,50.20
2023-02-19T22:32:12.839Z,44.10
2023-02-19T22:34:41.913Z,42.25
2023-02-19T22:37:10.274Z,58.00
2023-02-19T22:39:38.666Z,49.35
2023-02-19T22:42:09.946Z,47.90
2023-02-19T22:44:38.373Z,39.88
2023-02-19T22:47:06.451Z,58.80
2023-02-19T22:49:34.606Z,61.38
2023-02-19T22:52:07.512Z,48.97
2023-02-19T22:54:36.083Z,44.92
2023-02-19T22:57:04.332Z,41.90
2023-02-19T22:59:33.759Z,42.28
2023-02-19T23:02:01.810Z,44.97
2023-02-19T23:04:29.869Z,42.72
2023-02-19T23:06:57.936Z,35.95
2023-02-19T23:09:28.166Z,40.25
2023-02-19T23:12:02.703Z,41.35
2023-02-19T23:14:30.739Z,40.13
2023-02-19T23:17:00.501Z,41.00
2023-02-19T23:19:28.911Z,44.28
2023-02-19T23:21:57.255Z,42.28
2023-02-19T23:24:25.362Z,42.13
2023-02-19T23:26:54.718Z,41.95
2023-02-19T23:29:25.347Z,42.55
2023-02-19T23:31:53.758Z,42.70
2023-02-19T23:34:24.342Z,44.60
2023-02-19T23:36:53.003Z,44.05
2023-02-19T23:39:22.672Z,47.70
2023-02-19T23:41:52.766Z,45.45
2023-02-19T23:44:21.901Z,49.00
2023-02-19T23:46:51.057Z,51.95
2023-02-19T23:49:19.790Z,52.22
2023-02-19T23:51:49.174Z,56.15
2023-02-19T23:54:17.234Z,58.15
2023-02-19T23:56:45.289Z,55.33
2023-02-19T23:59:13.796Z,53.92
